Time;durP1;ratioP1;P1;durP2;ratioP2;P2;SDS_P1;SDS_P2;PMS_P1;PMS_P2;Temp;Humidity;BMP_temperature;BMP_pressure;BME280_temperature;BME280_humidity;BME280_pressure;Samples;Min_cycle;Max_cycle;Signal;HPM_P1;HPM_P2
2024/01/03 00:00:28;;;;;;;0.43;0.43;;;;;;;11.30;100.00;97615.94;5059082;28;20060;-77
2024/01/03 00:02:55;;;;;;;0.43;0.43;;;;;;;11.29;100.00;97614.41;5061340;28;20466;-75
2024/01/03 00:05:29;;;;;;;2.33;0.47;;;;;;;11.35;100.00;97618.06;5043595;28;20036;-75
2024/01/03 00:07:55;;;;;;;0.20;0.20;;;;;;;11.36;100.00;97613.44;5043555;28;20148;-75
2024/01/03 00:10:48;;;;;;;0.10;0.10;;;;;;;11.43;100.00;97627.44;5042212;28;20104;-76
2024/01/03 00:13:38;;;;;;;0.93;0.35;;;;;;;11.28;100.00;97612.91;5060482;28;20040;-75
2024/01/03 00:16:09;;;;;;;0.30;0.30;;;;;;;11.36;100.00;97616.88;5057955;28;20041;-75
2024/01/03 00:18:36;;;;;;;0.63;0.43;;;;;;;11.42;100.00;97606.31;5040572;28;20035;-75
2024/01/03 00:21:03;;;;;;;0.52;0.43;;;;;;;11.34;100.00;97605.03;5039923;28;20029;-77
2024/01/03 00:23:37;;;;;;;1.77;0.50;;;;;;;11.41;100.00;97602.09;5058833;28;20047;-74
2024/01/03 00:26:02;;;;;;;1.20;0.30;;;;;;;11.38;100.00;97602.97;5057272;28;20047;-75
2024/01/03 00:28:28;;;;;;;0.32;0.32;;;;;;;11.51;100.00;97604.44;5041622;28;20044;-75
2024/01/03 00:30:54;;;;;;;0.45;0.40;;;;;;;11.61;100.00;97603.31;5058647;28;20107;-74
2024/01/03 00:33:20;;;;;;;0.10;0.10;;;;;;;11.65;100.00;97595.91;5039274;28;20131;-75
2024/01/03 00:35:46;;;;;;;0.17;0.17;;;;;;;11.69;100.00;97606.59;5040153;28;20036;-75
2024/01/03 00:38:11;;;;;;;0.20;0.20;;;;;;;11.61;100.00;97597.19;5057762;28;20036;-75
2024/01/03 00:40:52;;;;;;;1.48;0.30;;;;;;;11.59;100.00;97600.31;5058463;28;20525;-76
2024/01/03 00:43:17;;;;;;;3.53;0.50;;;;;;;11.64;100.00;97596.31;5056470;28;20094;-75
2024/01/03 00:45:43;;;;;;;0.20;0.20;;;;;;;11.60;100.00;97593.75;5054879;28;20040;-74
2024/01/03 00:48:09;;;;;;;0.20;0.20;;;;;;;11.63;100.00;97602.91;5039075;28;20024;-75
2024/01/03 00:50:34;;;;;;;0.10;0.10;;;;;;;11.74;100.00;97598.69;5039919;28;20029;-77
2024/01/03 00:53:00;;;;;;;3.65;0.40;;;;;;;11.71;100.00;97598.81;5038622;28;20812;-76
2024/01/03 00:55:25;;;;;;;0.20;0.20;;;;;;;11.66;100.00;97610.91;5058185;28;20032;-75
2024/01/03 00:57:51;;;;;;;0.25;0.25;;;;;;;11.76;100.00;97614.41;5039537;28;20082;-76
2024/01/03 01:00:16;;;;;;;0.22;0.22;;;;;;;11.79;100.00;97611.59;5055893;28;20171;-76
2024/01/03 01:02:44;;;;;;;1.48;0.38;;;;;;;11.80;100.00;97604.28;5040266;28;20032;-75
2024/01/03 01:05:10;;;;;;;0.22;0.15;;;;;;;11.71;100.00;97596.84;5055611;28;20094;-75
2024/01/03 01:07:35;;;;;;;0.17;0.17;;;;;;;11.67;100.00;97592.78;5038424;28;20028;-76
2024/01/03 01:10:01;;;;;;;0.20;0.20;;;;;;;11.69;100.00;97609.28;5040545;28;20565;-75
2024/01/03 01:12:26;;;;;;;5.40;0.38;;;;;;;11.70;100.00;97597.28;5042861;28;20130;-75
2024/01/03 01:14:52;;;;;;;0.30;0.30;;;;;;;11.78;100.00;97609.34;5061335;28;20497;-75
2024/01/03 01:17:17;;;;;;;0.10;0.10;;;;;;;11.68;100.00;97595.03;5060177;28;20131;-75
2024/01/03 01:19:43;;;;;;;1.05;0.32;;;;;;;11.79;100.00;97603.50;5042023;28;20119;-75
2024/01/03 01:22:09;;;;;;;0.20;0.20;;;;;;;11.58;100.00;97592.66;5061235;28;20420;-75
2024/01/03 01:24:35;;;;;;;0.35;0.35;;;;;;;11.75;100.00;97589.41;5044281;28;20031;-75
2024/01/03 01:27:00;;;;;;;0.30;0.30;;;;;;;11.65;100.00;97597.84;5061478;28;20037;-75
2024/01/03 01:29:25;;;;;;;5.68;0.20;;;;;;;11.74;100.00;97582.50;5041548;28;20147;-75
2024/01/03 01:31:51;;;;;;;4.65;0.43;;;;;;;11.83;100.00;97587.19;5044810;28;20070;-75
2024/01/03 01:34:17;;;;;;;0.10;0.10;;;;;;;11.85;100.00;97589.44;5061508;28;20511;-75
2024/01/03 01:36:43;;;;;;;0.20;0.20;;;;;;;11.81;100.00;97581.50;5042254;28;20174;-75
2024/01/03 01:39:09;;;;;;;0.20;0.20;;;;;;;11.77;100.00;97589.72;5044487;28;20485;-74
2024/01/03 01:41:34;;;;;;;0.28;0.28;;;;;;;11.85;100.00;97592.91;5061425;28;20028;-74
2024/01/03 01:44:00;;;;;;;0.43;0.43;;;;;;;11.80;100.00;97590.78;5057806;28;21412;-75
2024/01/03 01:46:26;;;;;;;0.17;0.17;;;;;;;11.77;100.00;97580.88;5061031;28;20564;-74
2024/01/03 01:48:52;;;;;;;0.40;0.40;;;;;;;11.70;100.00;97589.22;5042724;28;21177;-74
2024/01/03 01:51:18;;;;;;;0.20;0.20;;;;;;;11.77;100.00;97584.31;5041131;28;20078;-74
2024/01/03 01:53:44;;;;;;;0.30;0.30;;;;;;;11.86;100.00;97585.59;5060239;28;20040;-75
2024/01/03 01:56:11;;;;;;;0.40;0.40;;;;;;;11.91;100.00;97593.09;5045129;28;20036;-74
2024/01/03 01:58:39;;;;;;;0.20;0.20;;;;;;;11.90;100.00;97588.91;5043693;28;20028;-74
2024/01/03 02:01:04;;;;;;;0.10;0.10;;;;;;;11.84;100.00;97588.72;5026282;28;20059;-74
2024/01/03 02:03:31;;;;;;;0.32;0.32;;;;;;;11.74;100.00;97582.50;5045005;28;20136;-74
2024/01/03 02:05:56;;;;;;;0.20;0.10;;;;;;;11.75;100.00;97602.88;5044138;28;20040;-75
2024/01/03 02:08:22;;;;;;;0.98;0.15;;;;;;;11.63;100.00;97589.44;5061085;28;20662;-75
2024/01/03 02:10:48;;;;;;;0.20;0.20;;;;;;;11.75;100.00;97583.25;5061175;28;21215;-74
2024/01/03 02:13:13;;;;;;;0.20;0.20;;;;;;;11.58;100.00;97582.66;5061057;28;20071;-74
2024/01/03 02:15:39;;;;;;;0.20;0.20;;;;;;;11.65;100.00;97597.84;5042742;28;20146;-74
2024/01/03 02:18:06;;;;;;;0.20;0.20;;;;;;;11.55;100.00;97585.47;5042105;28;20046;-74
2024/01/03 02:20:33;;;;;;;0.45;0.32;;;;;;;11.74;100.00;97579.81;5042037;28;20090;-74
2024/01/03 02:23:00;;;;;;;0.38;0.38;;;;;;;11.82;100.00;97580.31;5043384;28;20041;-75
2024/01/03 02:25:25;;;;;;;0.25;0.25;;;;;;;11.60;100.00;97585.66;5039433;28;20036;-75
2024/01/03 02:27:51;;;;;;;0.50;0.22;;;;;;;11.57;100.00;97581.16;5040678;28;20383;-73
2024/01/03 02:30:16;;;;;;;0.10;0.10;;;;;;;11.68;100.00;97575.41;5044957;28;20043;-74
2024/01/03 02:32:42;;;;;;;0.25;0.25;;;;;;;11.73;100.00;97575.59;5042539;28;20045;-74
2024/01/03 02:35:07;;;;;;;0.20;0.20;;;;;;;11.77;100.00;97578.16;5059848;28;20084;-74
2024/01/03 02:37:33;;;;;;;1.20;0.80;;;;;;;11.66;100.00;97581.25;5062452;28;20461;-74
2024/01/03 02:39:59;;;;;;;0.60;0.50;;;;;;;11.68;100.00;97581.56;5041803;28;20021;-74
2024/01/03 02:42:24;;;;;;;0.35;0.17;;;;;;;11.54;100.00;97573.16;5042344;28;20102;-73
2024/01/03 02:44:50;;;;;;;0.10;0.10;;;;;;;11.43;100.00;97581.63;5060339;28;20028;-74
2024/01/03 02:47:15;;;;;;;1.40;0.25;;;;;;;11.58;100.00;97571.09;5059316;28;20041;-74
2024/01/03 02:49:40;;;;;;;0.60;0.60;;;;;;;11.60;100.00;97566.03;5043132;28;20032;-74
2024/01/03 02:52:06;;;;;;;0.20;0.20;;;;;;;11.55;100.00;97559.28;5034345;28;21004;-74
2024/01/03 02:54:31;;;;;;;0.30;0.30;;;;;;;11.46;100.00;97558.41;5040205;28;20481;-75
2024/01/03 02:56:57;;;;;;;5.95;0.63;;;;;;;11.62;100.00;97560.94;5060217;28;20040;-74
2024/01/03 02:59:24;;;;;;;0.25;0.25;;;;;;;11.52;100.00;97567.47;5040598;28;20409;-74
2024/01/03 03:01:50;;;;;;;0.90;0.50;;;;;;;11.61;100.00;97565.59;5040397;28;20036;-73
2024/01/03 03:04:18;;;;;;;0.13;0.13;;;;;;;11.54;100.00;97575.84;5042473;28;20562;-76
2024/01/03 03:06:44;;;;;;;0.50;0.50;;;;;;;11.38;100.00;97571.38;5042452;28;20118;-74
2024/01/03 03:09:09;;;;;;;0.30;0.30;;;;;;;11.49;100.00;97573.72;5058285;28;20044;-75
2024/01/03 03:11:34;;;;;;;0.90;0.38;;;;;;;11.51;100.00;97577.50;5043159;28;20119;-74
2024/01/03 03:14:00;;;;;;;0.38;0.38;;;;;;;11.50;100.00;97575.97;5061248;28;20086;-74
2024/01/03 03:16:25;;;;;;;0.45;0.38;;;;;;;11.49;100.00;97573.72;5036189;28;20057;-74
2024/01/03 03:18:51;;;;;;;0.38;0.38;;;;;;;11.43;100.00;97570.09;5050474;28;20425;-74
2024/01/03 03:21:17;;;;;;;1.80;0.30;;;;;;;11.43;100.00;97572.78;5031933;28;20041;-73
2024/01/03 03:23:42;;;;;;;0.35;0.13;;;;;;;11.56;100.00;97584.25;5034266;28;20036;-74
2024/01/03 03:26:10;;;;;;;0.20;0.20;;;;;;;11.49;100.00;97587.97;5040617;28;20051;-74
2024/01/03 03:28:36;;;;;;;0.20;0.20;;;;;;;11.35;100.00;97593.06;5059445;28;20036;-74
2024/01/03 03:31:03;;;;;;;0.20;0.20;;;;;;;11.41;100.00;97592.06;5055136;28;20036;-75
2024/01/03 03:33:30;;;;;;;1.95;0.43;;;;;;;11.29;100.00;97589.41;5044735;28;20399;-74
2024/01/03 03:35:56;;;;;;;0.32;0.30;;;;;;;11.44;100.00;97582.38;5064310;28;20059;-75
2024/01/03 03:38:21;;;;;;;0.68;0.52;;;;;;;11.58;100.00;97588.03;5059890;28;20493;-74
2024/01/03 03:40:46;;;;;;;0.30;0.30;;;;;;;11.47;100.00;97587.66;5042073;28;20090;-74
2024/01/03 03:43:12;;;;;;;0.20;0.20;;;;;;;11.49;100.00;97585.28;5038693;28;20048;-75
2024/01/03 03:45:37;;;;;;;0.28;0.28;;;;;;;11.35;100.00;97582.28;5059317;28;20037;-74
2024/01/03 03:48:04;;;;;;;0.35;0.35;;;;;;;11.32;100.00;97572.38;5057912;28;20039;-74
2024/01/03 03:50:30;;;;;;;0.30;0.20;;;;;;;11.28;100.00;97569.81;5051968;28;20020;-74
2024/01/03 03:52:55;;;;;;;0.38;0.38;;;;;;;11.42;100.00;97580.09;5055289;28;20450;-75
2024/01/03 03:55:21;;;;;;;1.98;1.85;;;;;;;11.51;100.00;97579.44;5054585;28;20568;-75
2024/01/03 03:57:46;;;;;;;0.35;0.35;;;;;;;11.47;100.00;97586.88;5058647;28;20134;-74
2024/01/03 04:00:12;;;;;;;0.28;0.28;;;;;;;11.37;100.00;97580.66;5057457;28;20055;-74
2024/01/03 04:02:38;;;;;;;0.30;0.30;;;;;;;11.25;100.00;97581.44;5041141;28;20035;-74
2024/01/03 04:05:04;;;;;;;0.10;0.10;;;;;;;11.19;100.00;97587.81;5055237;28;20418;-73
2024/01/03 04:07:31;;;;;;;0.20;0.20;;;;;;;11.25;100.00;97578.00;5060257;28;20381;-74
2024/01/03 04:09:57;;;;;;;0.10;0.10;;;;;;;11.26;100.00;97593.72;5058556;28;20067;-74
2024/01/03 04:12:22;;;;;;;0.32;0.20;;;;;;;11.26;100.00;97582.19;5061804;28;20099;-74
2024/01/03 04:14:48;;;;;;;0.10;0.10;;;;;;;10.94;100.00;97582.47;5060996;28;20431;-74
2024/01/03 04:17:13;;;;;;;3.35;0.30;;;;;;;11.26;100.00;97591.03;5026334;28;20807;-74
2024/01/03 04:19:39;;;;;;;2.28;0.20;;;;;;;11.14;100.00;97597.19;5038897;28;20436;-75
2024/01/03 04:22:05;;;;;;;0.32;0.32;;;;;;;11.10;100.00;97595.78;5058086;28;20513;-74
2024/01/03 04:24:31;;;;;;;0.15;0.15;;;;;;;11.16;100.00;97586.00;5041668;28;20033;-74
2024/01/03 04:26:56;;;;;;;3.40;0.30;;;;;;;11.24;100.00;97596.09;5028437;28;20028;-74
2024/01/03 04:29:21;;;;;;;0.20;0.20;;;;;;;11.26;100.00;97582.97;5052854;28;20549;-74
2024/01/03 04:31:47;;;;;;;0.70;0.15;;;;;;;11.01;100.00;97587.63;5039202;28;20068;-73
2024/01/03 04:34:14;;;;;;;1.42;0.15;;;;;;;11.15;100.00;97587.91;5050736;28;20038;-74
2024/01/03 04:36:39;;;;;;;1.95;0.55;;;;;;;11.14;100.00;97582.97;5054655;28;20029;-74
2024/01/03 04:39:04;;;;;;;2.95;0.30;;;;;;;11.11;100.00;97575.78;5058327;28;20386;-73
2024/01/03 04:41:30;;;;;;;0.15;0.15;;;;;;;11.01;100.00;97582.25;5060262;28;20440;-74
2024/01/03 04:43:56;;;;;;;2.33;0.35;;;;;;;10.87;100.00;97564.59;5025489;28;20039;-76
2024/01/03 04:46:21;;;;;;;0.10;0.10;;;;;;;11.03;100.00;97579.88;5042423;28;20028;-74
2024/01/03 04:48:47;;;;;;;0.10;0.10;;;;;;;11.04;100.00;97586.75;5039958;28;20052;-74
2024/01/03 04:51:12;;;;;;;0.10;0.10;;;;;;;11.04;100.00;97579.44;5061829;28;20071;-73
2024/01/03 04:53:38;;;;;;;1.45;0.30;;;;;;;11.01;100.00;97588.38;5043591;28;20545;-74
2024/01/03 04:56:04;;;;;;;0.20;0.20;;;;;;;11.11;100.00;97581.16;5039339;28;20079;-75
2024/01/03 04:58:30;;;;;;;0.28;0.20;;;;;;;11.07;100.00;97583.94;5059752;28;20025;-74
2024/01/03 05:00:55;;;;;;;0.10;0.10;;;;;;;10.91;100.00;97589.47;5040992;28;20407;-74
2024/01/03 05:03:20;;;;;;;2.38;0.30;;;;;;;10.94;100.00;97588.59;5051706;28;20048;-74
2024/01/03 05:05:46;;;;;;;0.10;0.10;;;;;;;11.13;100.00;97592.25;5052520;28;20062;-74
2024/01/03 05:08:11;;;;;;;0.20;0.20;;;;;;;11.11;100.00;97583.84;5042615;28;20039;-74
2024/01/03 05:10:37;;;;;;;0.20;0.20;;;;;;;11.07;100.00;97583.94;5024158;28;20055;-74
2024/01/03 05:13:02;;;;;;;0.55;0.20;;;;;;;11.04;100.00;97576.75;5043499;28;20031;-74
2024/01/03 05:15:28;;;;;;;5.70;0.30;;;;;;;11.07;100.00;97575.88;5040416;28;20044;-74
2024/01/03 05:17:53;;;;;;;0.10;0.10;;;;;;;10.77;100.00;97574.50;5023724;28;20041;-74
2024/01/03 05:20:19;;;;;;;0.10;0.10;;;;;;;10.98;100.00;97578.47;5037743;28;20127;-74
2024/01/03 05:22:44;;;;;;;0.50;0.38;;;;;;;11.08;100.00;97560.47;5038869;28;20089;-75
2024/01/03 05:25:10;;;;;;;0.20;0.20;;;;;;;11.06;100.00;97560.16;5058805;28;20037;-75
2024/01/03 05:27:35;;;;;;;0.20;0.20;;;;;;;11.05;100.00;97545.94;5058889;28;20382;-74
2024/01/03 05:30:01;;;;;;;0.10;0.10;;;;;;;11.14;100.00;97545.28;5040899;28;20040;-73
2024/01/03 05:32:26;;;;;;;0.55;0.55;;;;;;;11.12;100.00;97563.81;5026228;28;20021;-74
2024/01/03 05:34:51;;;;;;;0.10;0.10;;;;;;;11.11;100.00;97567.69;5041624;28;20033;-75
2024/01/03 05:37:18;;;;;;;0.10;0.10;;;;;;;11.11;100.00;97571.13;5043148;28;20133;-75
2024/01/03 05:39:44;;;;;;;0.10;0.10;;;;;;;11.13;100.00;97573.41;5057919;28;20040;-75
2024/01/03 05:42:10;;;;;;;0.10;0.10;;;;;;;11.07;100.00;97565.09;5059481;28;20044;-75
2024/01/03 05:44:36;;;;;;;0.22;0.22;;;;;;;11.14;100.00;97575.66;5060902;28;20028;-75
2024/01/03 05:47:01;;;;;;;0.15;0.15;;;;;;;11.15;100.00;97573.72;5038755;28;20036;-75
2024/01/03 05:49:27;;;;;;;0.63;0.20;;;;;;;11.20;100.00;97581.25;5059522;28;20079;-78
2024/01/03 05:51:52;;;;;;;0.32;0.20;;;;;;;11.09;100.00;97578.16;5056755;28;20115;-75
2024/01/03 05:54:18;;;;;;;0.60;0.25;;;;;;;10.90;100.00;97574.50;5042088;28;20532;-75
2024/01/03 05:56:44;;;;;;;0.20;0.20;;;;;;;10.93;100.00;97570.19;5038186;28;20518;-74
2024/01/03 05:59:09;;;;;;;0.20;0.20;;;;;;;10.98;100.00;97566.94;5061356;28;20038;-75
2024/01/03 06:01:35;;;;;;;0.10;0.10;;;;;;;10.92;100.00;97585.59;5056788;28;20032;-75
2024/01/03 06:04:00;;;;;;;4.57;0.50;;;;;;;11.03;100.00;97574.50;5044680;28;20032;-75
2024/01/03 06:06:27;;;;;;;9.00;0.70;;;;;;;11.06;100.00;97600.53;5046769;28;20413;-76
2024/01/03 06:08:52;;;;;;;1.40;0.60;;;;;;;10.93;100.00;97581.72;5061360;28;20682;-74
2024/01/03 06:11:18;;;;;;;0.30;0.30;;;;;;;11.06;100.00;97598.59;5062082;28;20115;-76
2024/01/03 06:13:43;;;;;;;1.15;0.40;;;;;;;11.01;100.00;97593.00;5043965;28;20186;-75
2024/01/03 06:16:10;;;;;;;0.35;0.32;;;;;;;10.86;100.00;97593.44;5065017;28;20063;-75
2024/01/03 06:18:36;;;;;;;0.25;0.25;;;;;;;10.93;100.00;97575.56;5057502;28;20033;-75
2024/01/03 06:21:01;;;;;;;0.65;0.25;;;;;;;11.04;100.00;97594.84;5040315;28;20055;-75
2024/01/03 06:23:27;;;;;;;0.60;0.30;;;;;;;11.09;100.00;97592.34;5043945;28;20039;-75
2024/01/03 06:25:52;;;;;;;4.30;0.50;;;;;;;11.14;100.00;97597.19;5041651;28;20082;-75
2024/01/03 06:28:18;;;;;;;1.10;0.45;;;;;;;11.09;100.00;97599.69;5047578;28;20182;-75
2024/01/03 06:30:43;;;;;;;0.43;0.43;;;;;;;11.02;100.00;97605.28;5059680;28;20033;-75
2024/01/03 06:33:09;;;;;;;0.95;0.35;;;;;;;11.14;100.00;97601.81;5052754;28;20040;-78
2024/01/03 06:35:34;;;;;;;0.75;0.43;;;;;;;11.24;100.00;97606.13;5027528;28;20029;-75
2024/01/03 06:38:00;;;;;;;0.30;0.20;;;;;;;11.24;100.00;97603.44;5041398;28;20406;-75
2024/01/03 06:40:25;;;;;;;2.03;0.55;;;;;;;11.22;100.00;97609.25;5025362;28;20508;-75
2024/01/03 06:42:52;;;;;;;3.28;0.68;;;;;;;11.05;100.00;97612.50;5044602;28;20679;-78
2024/01/03 06:45:17;;;;;;;0.88;0.65;;;;;;;10.95;100.00;97605.50;5044360;28;20114;-77
2024/01/03 06:47:43;;;;;;;0.57;0.57;;;;;;;11.08;100.00;97614.31;5042748;28;20041;-76
2024/01/03 06:50:09;;;;;;;3.58;0.90;;;;;;;11.06;100.00;97622.84;5048295;28;20076;-76
2024/01/03 06:52:34;;;;;;;5.68;0.60;;;;;;;10.87;100.00;97634.59;5031890;28;20029;-76
2024/01/03 06:54:59;;;;;;;0.20;0.20;;;;;;;11.09;100.00;97626.63;5032874;28;20127;-77
2024/01/03 06:57:25;;;;;;;0.50;0.50;;;;;;;11.10;100.00;97620.03;5051201;28;20029;-76
2024/01/03 06:59:50;;;;;;;0.43;0.43;;;;;;;11.07;100.00;97602.78;5049826;28;20119;-77
2024/01/03 07:02:16;;;;;;;0.20;0.20;;;;;;;11.23;100.00;97626.91;5050986;28;20068;-76
2024/01/03 07:04:41;;;;;;;0.40;0.30;;;;;;;11.18;100.00;97629.41;5052570;28;20029;-77
2024/01/03 07:07:06;;;;;;;0.20;0.20;;;;;;;11.08;100.00;97636.63;5017367;28;20094;-76
2024/01/03 07:09:32;;;;;;;5.40;0.38;;;;;;;11.04;100.00;97640.59;5034873;28;20024;-77
2024/01/03 07:11:57;;;;;;;0.30;0.30;;;;;;;11.09;100.00;97637.38;5050400;28;20063;-76
2024/01/03 07:14:23;;;;;;;6.70;0.93;;;;;;;10.91;100.00;97640.63;5050806;28;20053;-77
2024/01/03 07:16:48;;;;;;;0.40;0.30;;;;;;;11.05;100.00;97642.13;5047043;28;20048;-76
2024/01/03 07:19:14;;;;;;;0.32;0.32;;;;;;;11.03;100.00;97649.88;5049058;28;20040;-77
2024/01/03 07:21:39;;;;;;;0.30;0.30;;;;;;;10.93;100.00;97651.72;5049008;28;20025;-77
2024/01/03 07:24:05;;;;;;;0.65;0.50;;;;;;;11.00;100.00;97651.50;5040293;28;20457;-76
2024/01/03 07:26:30;;;;;;;1.30;0.20;;;;;;;10.86;100.00;97649.22;5015829;28;20041;-77
2024/01/03 07:28:56;;;;;;;0.20;0.20;;;;;;;10.95;100.00;97665.50;5049548;28;20059;-76
2024/01/03 07:31:21;;;;;;;0.20;0.20;;;;;;;10.99;100.00;97666.16;5046781;28;20064;-77
2024/01/03 07:33:47;;;;;;;1.25;1.10;;;;;;;11.08;100.00;97663.56;5033407;28;20029;-77
2024/01/03 07:36:12;;;;;;;0.20;0.20;;;;;;;10.98;100.00;97667.31;5036698;28;20037;-77
2024/01/03 07:38:38;;;;;;;0.55;0.32;;;;;;;11.02;100.00;97662.59;5035290;28;20037;-76
2024/01/03 07:41:03;;;;;;;0.82;0.30;;;;;;;10.99;100.00;97668.84;5032734;28;20075;-78
2024/01/03 07:43:29;;;;;;;0.10;0.10;;;;;;;11.01;100.00;97671.09;5048924;28;20086;-76
2024/01/03 07:45:55;;;;;;;2.30;0.60;;;;;;;11.14;100.00;97663.78;5032213;28;20032;-77
2024/01/03 07:48:21;;;;;;;0.20;0.20;;;;;;;11.10;100.00;97660.44;5052897;28;20031;-77
2024/01/03 07:50:46;;;;;;;0.10;0.10;;;;;;;10.94;100.00;97652.47;5048622;28;20397;-77
2024/01/03 07:53:12;;;;;;;2.17;0.52;;;;;;;10.75;100.00;97673.00;5032097;28;20040;-77
2024/01/03 07:55:37;;;;;;;0.10;0.10;;;;;;;10.98;100.00;97658.47;5050476;28;20174;-77
2024/01/03 07:58:03;;;;;;;0.45;0.40;;;;;;;10.99;100.00;97666.16;5031330;28;20052;-77
2024/01/03 08:00:30;;;;;;;4.18;0.60;;;;;;;11.13;100.00;97663.00;5044239;28;20506;-77
2024/01/03 08:02:56;;;;;;;3.40;0.60;;;;;;;11.05;100.00;97650.97;5037519;28;20033;-76
2024/01/03 08:05:22;;;;;;;0.20;0.20;;;;;;;10.88;100.00;97673.78;5034076;28;20036;-76
2024/01/03 08:07:48;;;;;;;0.30;0.30;;;;;;;10.92;100.00;97662.91;5033075;28;20236;-76
2024/01/03 08:10:13;;;;;;;0.60;0.60;;;;;;;10.87;100.00;97673.03;5055773;28;20031;-78
2024/01/03 08:12:40;;;;;;;0.38;0.13;;;;;;;10.99;100.00;97668.84;5050042;28;20132;-77
2024/01/03 08:15:06;;;;;;;3.55;0.35;;;;;;;10.89;100.00;97667.22;5035386;28;20043;-77
2024/01/03 08:17:32;;;;;;;0.30;0.30;;;;;;;11.03;100.00;97676.81;5017012;28;20055;-78
2024/01/03 08:19:57;;;;;;;0.10;0.10;;;;;;;10.83;100.00;97674.31;5033440;28;20037;-76
2024/01/03 08:22:22;;;;;;;1.20;0.32;;;;;;;10.88;100.00;97671.06;5033065;28;20048;-81
2024/01/03 08:24:48;;;;;;;1.38;0.30;;;;;;;10.95;100.00;97672.81;5046569;28;20032;-77
2024/01/03 08:27:13;;;;;;;0.20;0.20;;;;;;;10.87;100.00;97683.81;5054396;28;20033;-78
2024/01/03 08:29:39;;;;;;;0.40;0.40;;;;;;;10.98;100.00;97682.72;5036315;28;20028;-77
2024/01/03 08:32:05;;;;;;;3.50;0.22;;;;;;;11.16;100.00;97686.41;5034777;28;20064;-76
2024/01/03 08:34:31;;;;;;;1.25;0.77;;;;;;;10.93;100.00;97702.88;5048419;28;20513;-76
2024/01/03 08:36:56;;;;;;;0.57;0.40;;;;;;;10.94;100.00;97712.44;5057336;28;20120;-77
2024/01/03 08:39:22;;;;;;;0.25;0.15;;;;;;;10.88;100.00;97688.00;5027067;28;20029;-77
2024/01/03 08:41:53;;;;;;;3.92;0.45;;;;;;;11.24;100.00;97686.94;5048615;28;20048;-77
2024/01/03 08:44:22;;;;;;;0.88;0.25;;;;;;;11.19;100.00;97709.03;5049331;28;20044;-77
2024/01/03 08:46:47;;;;;;;1.10;0.40;;;;;;;11.19;100.00;97715.16;5048695;28;20033;-77
2024/01/03 08:49:13;;;;;;;0.20;0.20;;;;;;;10.95;100.00;97699.75;5050613;28;20436;-77
2024/01/03 08:51:39;;;;;;;0.20;0.20;;;;;;;11.01;100.00;97693.41;5049036;28;20023;-77
2024/01/03 08:54:05;;;;;;;0.47;0.47;;;;;;;11.05;100.00;97707.50;5051671;28;20041;-77
2024/01/03 08:56:31;;;;;;;0.10;0.10;;;;;;;11.19;100.00;97701.69;5037935;28;20103;-78
2024/01/03 08:58:56;;;;;;;0.60;0.30;;;;;;;11.24;100.00;97716.56;5051292;28;20083;-77
2024/01/03 09:01:23;;;;;;;0.40;0.30;;;;;;;11.30;100.00;97704.06;5032148;28;20018;-76
2024/01/03 09:03:49;;;;;;;0.90;0.90;;;;;;;11.12;100.00;97711.91;5045039;28;20052;-76
2024/01/03 09:06:20;;;;;;;0.20;0.20;;;;;;;10.98;100.00;97709.63;5030297;28;20025;-77
2024/01/03 09:08:47;;;;;;;2.10;0.52;;;;;;;11.24;100.00;97725.41;5031447;28;20078;-77
2024/01/03 09:11:13;;;;;;;0.22;0.22;;;;;;;11.07;100.00;97717.84;5025143;28;20040;-78
2024/01/03 09:13:39;;;;;;;1.05;0.88;;;;;;;11.16;100.00;97724.09;5017541;28;20033;-77
2024/01/03 09:16:06;;;;;;;0.65;0.50;;;;;;;11.36;100.00;97726.59;5049535;28;20055;-76
2024/01/03 09:18:32;;;;;;;0.63;0.50;;;;;;;11.49;98.60;97738.09;5046943;28;20083;-77
2024/01/03 09:20:58;;;;;;;1.27;0.30;;;;;;;11.40;98.73;97743.41;5050243;28;20025;-77
2024/01/03 09:23:24;;;;;;;0.15;0.15;;;;;;;11.33;99.35;97744.38;5030317;28;20036;-76
2024/01/03 09:25:51;;;;;;;2.22;0.52;;;;;;;11.40;98.17;97754.19;5031302;28;20036;-77
2024/01/03 09:28:17;;;;;;;3.05;1.60;;;;;;;11.43;97.88;97740.59;5033298;28;20048;-76
2024/01/03 09:30:42;;;;;;;0.38;0.38;;;;;;;11.33;98.15;97757.06;5054354;28;20049;-76
2024/01/03 09:33:08;;;;;;;4.05;0.20;;;;;;;11.45;98.38;97759.78;5035760;28;20138;-77
2024/01/03 09:35:33;;;;;;;0.22;0.22;;;;;;;11.45;97.60;97756.31;5037675;28;20066;-76
2024/01/03 09:37:59;;;;;;;0.38;0.22;;;;;;;11.37;98.70;97763.88;5057729;28;20029;-77
2024/01/03 09:40:24;;;;;;;0.15;0.15;;;;;;;11.51;97.96;97760.00;5037041;28;20036;-77
2024/01/03 09:42:50;;;;;;;0.20;0.20;;;;;;;11.54;97.94;97765.25;5035749;28;20024;-77
2024/01/03 09:45:15;;;;;;;0.77;0.32;;;;;;;11.39;98.64;97764.19;5051514;28;20754;-78
2024/01/03 09:47:42;;;;;;;0.15;0.15;;;;;;;11.51;98.06;97751.91;5024360;28;20033;-78
2024/01/03 09:50:08;;;;;;;1.23;0.57;;;;;;;11.45;97.12;97756.31;5054687;28;20028;-77
2024/01/03 09:52:35;;;;;;;0.43;0.43;;;;;;;11.45;96.76;97765.16;5030128;28;20041;-77
2024/01/03 09:55:02;;;;;;;0.50;0.50;;;;;;;11.19;99.32;97763.63;5053547;28;20037;-77
2024/01/03 09:57:27;;;;;;;1.90;0.38;;;;;;;11.43;97.79;97753.31;5058870;28;20111;-77
2024/01/03 09:59:55;;;;;;;0.77;0.25;;;;;;;11.42;97.69;97760.63;5049802;28;20043;-78
2024/01/03 10:02:26;;;;;;;1.13;0.32;;;;;;;11.59;97.25;97762.03;5049067;28;20047;-77
2024/01/03 10:04:53;;;;;;;6.60;0.30;;;;;;;11.76;95.52;97758.06;5056134;28;20067;-77
2024/01/03 10:07:33;;;;;;;0.80;0.65;;;;;;;11.76;95.31;97765.38;5054880;28;20079;-77
2024/01/03 10:09:58;;;;;;;1.00;0.52;;;;;;;11.76;96.40;97762.69;5031857;28;20099;-78
2024/01/03 10:12:24;;;;;;;0.93;0.52;;;;;;;11.92;95.62;97778.75;5054610;28;20029;-77
2024/01/03 10:14:50;;;;;;;0.22;0.22;;;;;;;11.99;94.54;97780.44;5042056;28;20035;-77
2024/01/03 10:17:16;;;;;;;1.08;0.15;;;;;;;12.04;93.73;97777.22;5025096;28;20128;-77
2024/01/03 10:19:41;;;;;;;0.25;0.25;;;;;;;12.05;94.01;97774.09;5034614;28;20036;-77
2024/01/03 10:22:07;;;;;;;0.30;0.30;;;;;;;12.14;93.50;97784.94;5036622;28;20033;-77
2024/01/03 10:24:32;;;;;;;0.40;0.32;;;;;;;12.20;92.42;97777.81;5040892;28;20036;-77
2024/01/03 10:27:11;;;;;;;1.60;0.38;;;;;;;12.06;93.30;97778.28;5052111;28;20033;-78
2024/01/03 10:29:38;;;;;;;0.40;0.25;;;;;;;12.13;93.78;97783.47;5031528;28;20057;-78
2024/01/03 10:32:09;;;;;;;2.83;0.40;;;;;;;12.14;93.19;97784.19;5035337;28;20021;-77
2024/01/03 10:34:36;;;;;;;1.20;0.68;;;;;;;12.10;94.14;97784.31;5053763;28;20033;-77
2024/01/03 10:37:03;;;;;;;1.40;0.75;;;;;;;12.06;93.54;97758.66;5028500;28;20047;-76
2024/01/03 10:39:31;;;;;;;1.35;0.15;;;;;;;12.03;92.94;97779.16;5057772;28;20108;-78
2024/01/03 10:41:58;;;;;;;0.30;0.30;;;;;;;11.84;92.16;97787.50;5055865;28;20037;-77
2024/01/03 10:44:23;;;;;;;0.20;0.20;;;;;;;11.93;92.32;97779.47;5059184;28;20067;-77
2024/01/03 10:46:51;;;;;;;2.00;0.60;;;;;;;12.10;91.66;97786.28;5059606;28;20028;-77
2024/01/03 10:49:17;;;;;;;0.70;0.32;;;;;;;12.27;89.93;97769.47;5042763;28;20064;-78
2024/01/03 10:51:44;;;;;;;4.35;0.45;;;;;;;12.12;88.27;97775.78;5038673;28;20067;-77
2024/01/03 10:54:15;;;;;;;0.10;0.10;;;;;;;11.91;90.32;97796.09;5056350;28;20115;-78
2024/01/03 10:56:46;;;;;;;0.20;0.20;;;;;;;11.82;90.23;97785.22;5043843;28;20034;-80
2024/01/03 10:59:12;;;;;;;;;;;;;;;12.09;88.86;97788.22;5044950;28;20032;-77
2024/01/03 11:01:58;;;;;;;0.10;0.10;;;;;;;11.98;88.85;97789.75;5054569;28;19918;-78
2024/01/03 11:04:51;;;;;;;0.43;0.43;;;;;;;12.08;89.08;97796.75;5055060;28;20059;-78
2024/01/03 11:07:25;;;;;;;0.60;0.40;;;;;;;11.83;90.07;97789.41;5061105;28;20040;-77
2024/01/03 11:09:50;;;;;;;0.77;0.63;;;;;;;11.91;90.39;97790.72;5052851;28;20039;-77
2024/01/03 11:12:16;;;;;;;0.28;0.25;;;;;;;11.88;90.36;97799.69;5060226;28;20040;-77
2024/01/03 11:14:41;;;;;;;1.00;0.43;;;;;;;12.06;90.57;97802.56;5037900;28;20029;-77
2024/01/03 11:17:10;;;;;;;0.45;0.20;;;;;;;12.12;89.83;97787.31;5047504;28;20052;-77
2024/01/03 11:19:38;;;;;;;4.95;0.47;;;;;;;12.14;90.09;97795.75;5049910;28;20037;-77
2024/01/03 11:22:04;;;;;;;4.03;0.45;;;;;;;12.24;89.38;97801.97;5043276;28;20020;-77